Terminal Aerodrome Forecast
Issued by NWS Missoula, MT

Home | Current Version | Previous Version | Text Only | Print | Product List | Glossary On
Versions: 1 2 3 4 5 6 7 8 9 10 11 12 13 14 15 16 17 18
000
FTUS45 KMSO 292128 AAB
TAFBTM
TAF AMD
KBTM 292128Z 2921/3018 29011KT P6SM VCSH BKN060
     FM292300 32015G30KT P6SM -SHRA VCTS BKN060CB BKN080
     FM300100 30010KT P6SM VCSH BKN080
     FM300600 32006KT P6SM BKN100=

USA.gov is the U.S. government's official web portal to all federal, state and local government web resources and services.